CheckWX is a tool to help pilots better visualize weather data.  It is not intended as a substitute for an official pre-flight weather briefing.

17:08:15 UTC

KBKV METAR
Brooksville-Tampa Bay Regional Airport
Brooksville, Florida, USA
Current

1 hour ago

KBKV 211553Z VRB03KT 10SM FEW028 31/23 A3008 RMK AO2 SLP184 T03110233
Observed
Jul-21 @ 15:53 UTC
Wind
  • Variable at 3 KTS
Visibility
10 SM
Flight Rules
VFR
Cloud Levels
  • Few at 2,800' AGL
Temperature
31°C / 88°F
Dewpoint
23°C / 73°F
Heat Index
36°C / 96°F
Humidity
62%
Altimeter
30.08" Hg
Pressure
1018.62 hPa
Previous

2 hours ago

KBKV 211453Z 12003KT 10SM FEW022 29/24 A3009 RMK AO2 SLP186 T02940239 53001
Observed
Jul-21 @ 14:53 UTC
Wind
  • 120° at 3 KTS
Visibility
10 SM
Flight Rules
VFR
Cloud Levels
  • Few at 2,200' AGL
Temperature
29°C / 84°F
Dewpoint
24°C / 75°F
Heat Index
33°C / 92°F
Humidity
74%
Altimeter
30.09" Hg
Pressure
1018.92 hPa
Previous

3 hours ago

KBKV 211353Z VRB04KT 10SM FEW016 29/24 A3008 RMK AO2 SLP183 T02890244
Observed
Jul-21 @ 13:53 UTC
Wind
  • Variable at 4 KTS
Visibility
10 SM
Flight Rules
VFR
Cloud Levels
  • Few at 1,600' AGL
Temperature
29°C / 84°F
Dewpoint
24°C / 75°F
Heat Index
33°C / 92°F
Humidity
74%
Altimeter
30.08" Hg
Pressure
1018.62 hPa